createdAt,value
2017-07-07T00:00:39.737Z,33.1
2017-07-07T00:01:40.080Z,33
2017-07-07T00:02:42.705Z,33
2017-07-07T00:03:40.000Z,33
2017-07-07T00:04:40.089Z,33
2017-07-07T00:05:44.978Z,33
2017-07-07T00:06:40.271Z,33
2017-07-07T00:07:43.263Z,33
2017-07-07T00:08:40.077Z,33.1
2017-07-07T00:09:40.059Z,33.1
2017-07-07T00:10:40.183Z,33.1
2017-07-07T00:11:43.160Z,33
2017-07-07T00:12:45.372Z,33.1
2017-07-07T00:13:40.868Z,33.1
2017-07-07T00:14:45.530Z,33
2017-07-07T00:15:43.586Z,33
2017-07-07T00:16:43.475Z,33
2017-07-07T00:17:40.804Z,33
2017-07-07T00:18:40.722Z,33
2017-07-07T00:19:44.070Z,33
2017-07-07T00:20:40.813Z,33
2017-07-07T00:21:43.709Z,33
2017-07-07T00:22:43.781Z,33
2017-07-07T00:23:41.016Z,33
2017-07-07T00:24:43.867Z,33
2017-07-07T00:25:46.298Z,33
2017-07-07T00:26:46.074Z,33
2017-07-07T00:27:41.323Z,33
2017-07-07T00:28:44.205Z,33
2017-07-07T00:29:41.219Z,33
2017-07-07T00:30:41.273Z,33
2017-07-07T00:31:41.593Z,33
2017-07-07T00:32:41.520Z,33
2017-07-07T00:33:46.554Z,33
2017-07-07T00:34:44.331Z,33
2017-07-07T00:35:46.505Z,33
2017-07-07T00:36:41.683Z,33
2017-07-07T00:37:42.000Z,33
2017-07-07T00:38:41.712Z,33
2017-07-07T00:39:46.665Z,33
2017-07-07T00:40:44.751Z,33
2017-07-07T00:41:44.631Z,33
2017-07-07T00:42:41.974Z,33
2017-07-07T00:43:42.255Z,33
2017-07-07T00:44:42.083Z,33
2017-07-07T00:45:47.093Z,33
2017-07-07T00:46:42.179Z,33
2017-07-07T00:47:45.062Z,33
2017-07-07T00:48:47.214Z,32.9
2017-07-07T00:49:42.560Z,33
2017-07-07T00:50:47.182Z,33
2017-07-07T00:51:42.290Z,33
2017-07-07T00:52:47.375Z,33
2017-07-07T00:53:42.297Z,33
2017-07-07T00:54:47.497Z,33
2017-07-07T00:55:42.684Z,33
2017-07-07T00:56:45.520Z,33
2017-07-07T00:57:42.611Z,33
2017-07-07T00:58:42.655Z,33
2017-07-07T00:59:42.600Z,33
2017-07-07T01:00:47.658Z,32.9
2017-07-07T01:01:43.064Z,33
2017-07-07T01:02:42.667Z,33
2017-07-07T01:03:45.587Z,33
2017-07-07T01:04:42.720Z,33
2017-07-07T01:05:42.758Z,32.9
2017-07-07T01:06:47.897Z,33
2017-07-07T01:07:46.192Z,33
2017-07-07T01:08:47.921Z,32.9
2017-07-07T01:09:43.082Z,33
2017-07-07T01:10:45.961Z,33
2017-07-07T01:11:46.133Z,33
2017-07-07T01:12:43.291Z,33
2017-07-07T01:13:43.585Z,33
2017-07-07T01:14:43.391Z,33
2017-07-07T01:15:46.291Z,33
2017-07-07T01:16:43.339Z,33
2017-07-07T01:17:43.308Z,33
2017-07-07T01:18:46.296Z,33
2017-07-07T01:19:46.620Z,33
2017-07-07T01:20:43.793Z,33
2017-07-07T01:21:46.651Z,33
2017-07-07T01:22:43.775Z,32.9
2017-07-07T01:23:46.668Z,33
2017-07-07T01:24:43.969Z,33
2017-07-07T01:25:44.214Z,33
2017-07-07T01:26:46.753Z,33
2017-07-07T01:27:43.876Z,33
2017-07-07T01:28:48.980Z,32.9
2017-07-07T01:29:44.043Z,32.9
2017-07-07T01:30:43.971Z,32.9
2017-07-07T01:31:44.521Z,32.9
2017-07-07T01:32:44.326Z,32.9
2017-07-07T01:33:44.321Z,32.9
2017-07-07T01:34:47.128Z,32.9
2017-07-07T01:35:49.297Z,32.9
2017-07-07T01:36:44.318Z,32.9
2017-07-07T01:37:49.630Z,32.9
2017-07-07T01:38:47.330Z,32.9
2017-07-07T01:39:44.532Z,32.9
2017-07-07T01:40:44.449Z,32.9
2017-07-07T01:41:45.143Z,32.9
2017-07-07T01:42:49.711Z,32.9
2017-07-07T01:43:44.850Z,32.9
2017-07-07T01:44:49.735Z,32.9
2017-07-07T01:45:44.894Z,32.9
2017-07-07T01:46:47.827Z,32.9
2017-07-07T01:47:49.905Z,32.9
2017-07-07T01:48:45.078Z,32.9
2017-07-07T01:49:48.104Z,32.9
2017-07-07T01:50:50.022Z,32.9
2017-07-07T01:51:45.159Z,32.9
2017-07-07T01:52:45.061Z,32.9
2017-07-07T01:53:50.164Z,32.9
2017-07-07T01:54:48.143Z,32.9
2017-07-07T01:55:45.582Z,32.9
2017-07-07T01:56:48.276Z,32.9
2017-07-07T01:57:45.329Z,32.9
2017-07-07T01:58:48.261Z,32.8
2017-07-07T01:59:48.269Z,32.9
2017-07-07T02:00:45.363Z,32.9
2017-07-07T02:01:48.880Z,32.9
2017-07-07T02:02:50.620Z,32.9
2017-07-07T02:03:48.692Z,32.9
2017-07-07T02:04:45.730Z,32.9
2017-07-07T02:05:48.769Z,32.9
2017-07-07T02:06:45.778Z,32.8
2017-07-07T02:07:49.100Z,32.9
2017-07-07T02:08:50.803Z,32.8
2017-07-07T02:09:48.660Z,32.9
2017-07-07T02:10:45.769Z,32.9
2017-07-07T02:11:50.758Z,32.9
2017-07-07T02:12:45.913Z,32.9
2017-07-07T02:13:51.181Z,32.9
2017-07-07T02:14:50.945Z,32.9
2017-07-07T02:15:48.919Z,32.8
2017-07-07T02:16:46.277Z,32.8
2017-07-07T02:17:46.311Z,32.8
2017-07-07T02:18:51.348Z,32.8
2017-07-07T02:19:51.711Z,32.8
2017-07-07T02:20:51.487Z,32.9
2017-07-07T02:21:51.617Z,32.8
2017-07-07T02:22:49.526Z,32.8
2017-07-07T02:23:46.555Z,32.8
2017-07-07T02:24:50.456Z,32.8
2017-07-07T02:25:47.664Z,32.8
2017-07-07T02:26:47.480Z,32.8
2017-07-07T02:27:50.229Z,32.8
2017-07-07T02:28:52.246Z,32.8
2017-07-07T02:29:47.403Z,32.8
2017-07-07T02:30:52.467Z,32.8
2017-07-07T02:31:52.460Z,32.8
2017-07-07T02:32:52.458Z,32.8
2017-07-07T02:33:47.081Z,32.8
2017-07-07T02:34:49.226Z,32.8
2017-07-07T02:35:53.017Z,32.8
2017-07-07T02:36:52.229Z,32.8
2017-07-07T02:37:51.070Z,32.8
2017-07-07T02:38:52.446Z,32.8
2017-07-07T02:39:47.622Z,32.8
2017-07-07T02:40:47.338Z,32.8
2017-07-07T02:41:47.586Z,32.8
2017-07-07T02:42:47.380Z,32.8
2017-07-07T02:43:52.932Z,32.8
2017-07-07T02:44:52.554Z,32.8
2017-07-07T02:45:47.678Z,32.8
2017-07-07T02:46:48.051Z,32.8
2017-07-07T02:47:47.992Z,32.8
2017-07-07T02:48:48.154Z,32.8
2017-07-07T02:49:53.389Z,32.8
2017-07-07T02:50:53.241Z,32.8
2017-07-07T02:51:48.069Z,32.8
2017-07-07T02:52:51.531Z,32.8
2017-07-07T02:53:48.141Z,32.8
2017-07-07T02:54:53.276Z,32.8
2017-07-07T02:55:48.605Z,32.8
2017-07-07T02:56:51.379Z,32.8
2017-07-07T02:57:48.399Z,32.8
2017-07-07T02:58:48.179Z,32.8
2017-07-07T02:59:49.472Z,32.8
2017-07-07T03:00:49.381Z,32.8
2017-07-07T03:01:51.726Z,32.8
2017-07-07T03:02:48.839Z,32.8
2017-07-07T03:03:48.686Z,32.8
2017-07-07T03:04:49.212Z,32.8
2017-07-07T03:05:52.888Z,32.8
2017-07-07T03:06:49.576Z,32.8
2017-07-07T03:07:49.933Z,32.8
2017-07-07T03:08:54.412Z,32.8
2017-07-07T03:09:54.694Z,32.8
2017-07-07T03:10:54.524Z,32.8
2017-07-07T03:11:55.349Z,32.8
2017-07-07T03:12:49.142Z,32.8
2017-07-07T03:13:49.556Z,32.8
2017-07-07T03:14:49.269Z,32.8
2017-07-07T03:15:54.252Z,32.8
2017-07-07T03:16:51.989Z,32.8
2017-07-07T03:17:49.116Z,32.8
2017-07-07T03:18:49.157Z,32.7
2017-07-07T03:19:49.689Z,32.8
2017-07-07T03:20:49.493Z,32.8
2017-07-07T03:21:49.452Z,32.8
2017-07-07T03:22:49.323Z,32.8
2017-07-07T03:23:49.542Z,32.8
2017-07-07T03:24:54.568Z,32.8
2017-07-07T03:25:49.821Z,32.8
2017-07-07T03:26:52.388Z,32.8
2017-07-07T03:27:49.593Z,32.8
2017-07-07T03:28:51.134Z,32.8
2017-07-07T03:29:54.715Z,32.8
2017-07-07T03:30:54.797Z,32.8
2017-07-07T03:31:50.328Z,32.8
2017-07-07T03:32:54.932Z,32.8
2017-07-07T03:33:55.727Z,32.8
2017-07-07T03:34:55.048Z,32.8
2017-07-07T03:35:53.576Z,32.8
2017-07-07T03:36:52.923Z,32.8
2017-07-07T03:37:50.395Z,32.8
2017-07-07T03:38:52.904Z,32.8
2017-07-07T03:39:53.155Z,32.8
2017-07-07T03:40:53.085Z,32.8
2017-07-07T03:41:50.223Z,32.7
2017-07-07T03:42:53.266Z,32.8
2017-07-07T03:43:56.117Z,32.8
2017-07-07T03:44:50.505Z,32.8
2017-07-07T03:45:55.377Z,32.8
2017-07-07T03:46:55.361Z,32.8
2017-07-07T03:47:50.429Z,32.7
2017-07-07T03:48:55.465Z,32.8
2017-07-07T03:49:53.784Z,32.8
2017-07-07T03:50:51.427Z,32.8
2017-07-07T03:51:56.399Z,32.8
2017-07-07T03:52:50.750Z,32.8
2017-07-07T03:53:55.642Z,32.8
2017-07-07T03:54:50.778Z,32.7
2017-07-07T03:55:51.002Z,32.8
2017-07-07T03:56:50.919Z,32.8
2017-07-07T03:57:55.940Z,32.7
2017-07-07T03:58:55.937Z,32.8
2017-07-07T03:59:53.929Z,32.8
2017-07-07T04:00:51.211Z,32.8
2017-07-07T04:01:51.362Z,32.8
2017-07-07T04:02:54.028Z,32.7
2017-07-07T04:03:51.323Z,32.8
2017-07-07T04:04:51.260Z,32.8
2017-07-07T04:05:51.509Z,32.8
2017-07-07T04:06:54.329Z,32.8
2017-07-07T04:07:56.840Z,32.8
2017-07-07T04:08:56.433Z,32.8
2017-07-07T04:09:57.092Z,32.8
2017-07-07T04:10:51.685Z,32.8
2017-07-07T04:11:54.494Z,32.8
2017-07-07T04:12:51.810Z,32.8
2017-07-07T04:13:52.138Z,32.8
2017-07-07T04:14:51.785Z,32.8
2017-07-07T04:15:51.826Z,32.8
2017-07-07T04:16:56.936Z,32.8
2017-07-07T04:17:51.870Z,32.8
2017-07-07T04:18:51.999Z,32.8
2017-07-07T04:19:57.264Z,32.8
2017-07-07T04:20:54.977Z,32.8
2017-07-07T04:21:57.024Z,32.8
2017-07-07T04:22:57.026Z,32.8
2017-07-07T04:23:52.229Z,32.8
2017-07-07T04:24:52.241Z,32.8
2017-07-07T04:25:57.537Z,32.8
2017-07-07T04:26:52.287Z,32.9
2017-07-07T04:27:57.472Z,32.9
2017-07-07T04:28:57.417Z,32.9
2017-07-07T04:29:52.562Z,32.9
2017-07-07T04:30:52.560Z,32.9
2017-07-07T04:31:57.829Z,32.8
2017-07-07T04:32:55.357Z,32.3
2017-07-07T04:33:55.422Z,31.8
2017-07-07T04:34:52.730Z,31.2
2017-07-07T04:35:52.780Z,30.7
2017-07-07T04:36:57.707Z,30.3
2017-07-07T04:37:58.027Z,29.9
2017-07-07T04:38:52.744Z,29.3
2017-07-07T04:39:57.840Z,28.6
2017-07-07T04:40:57.962Z,28.2
2017-07-07T04:41:58.013Z,27.8
2017-07-07T04:42:55.891Z,27.2
2017-07-07T04:43:58.502Z,26.8
2017-07-07T04:44:58.112Z,26.4
2017-07-07T04:45:56.062Z,26.1
2017-07-07T04:46:56.021Z,25.9
2017-07-07T04:47:55.939Z,25.6
2017-07-07T04:48:53.276Z,25.4
2017-07-07T04:49:53.567Z,25.3
2017-07-07T04:50:56.089Z,25.1
2017-07-07T04:51:54.544Z,25
2017-07-07T04:52:58.264Z,24.8
2017-07-07T04:53:58.370Z,24.6
2017-07-07T04:54:53.440Z,24.4
2017-07-07T04:55:53.834Z,24.4
2017-07-07T04:56:53.553Z,24.3
2017-07-07T04:57:53.712Z,24.3
2017-07-07T04:58:53.654Z,24.2
2017-07-07T04:59:53.771Z,24.2
2017-07-07T05:00:58.834Z,24.1
2017-07-07T05:01:54.106Z,24
2017-07-07T05:02:53.910Z,24
2017-07-07T05:03:56.875Z,24
2017-07-07T05:04:53.912Z,24
2017-07-07T05:05:59.102Z,24
2017-07-07T05:06:54.086Z,24
2017-07-07T05:07:57.435Z,23.9
2017-07-07T05:08:54.344Z,23.9
2017-07-07T05:09:54.297Z,23.9
2017-07-07T05:10:54.265Z,23.7
2017-07-07T05:11:54.525Z,23.7
2017-07-07T05:12:54.490Z,23.5
2017-07-07T05:13:57.732Z,23.5
2017-07-07T05:14:54.723Z,23.4
2017-07-07T05:15:57.580Z,23.3
2017-07-07T05:16:54.684Z,23.3
2017-07-07T05:17:54.692Z,23.3
2017-07-07T05:18:54.948Z,23.3
2017-07-07T05:20:00.212Z,23.3
2017-07-07T05:20:54.997Z,23.5
2017-07-07T05:21:59.946Z,23.6
2017-07-07T05:22:54.961Z,23.5
2017-07-07T05:23:57.841Z,23.5
2017-07-07T05:25:00.006Z,23.3
2017-07-07T05:25:55.262Z,23.3
2017-07-07T05:26:54.905Z,23.3
2017-07-07T05:28:00.182Z,23.3
2017-07-07T05:28:54.994Z,23.4
2017-07-07T05:30:00.130Z,23.5
2017-07-07T05:31:00.089Z,23.5
2017-07-07T05:32:01.900Z,23.7
2017-07-07T05:32:55.229Z,23.8
2017-07-07T05:33:55.965Z,23.9
2017-07-07T05:34:55.262Z,24
2017-07-07T05:35:55.371Z,24
2017-07-07T05:36:55.532Z,24
2017-07-07T05:37:55.843Z,24.2
2017-07-07T05:38:55.383Z,24.4
2017-07-07T05:39:56.144Z,24.4
2017-07-07T05:40:58.482Z,24.3
2017-07-07T05:41:58.564Z,24.5
2017-07-07T05:43:01.750Z,24.6
2017-07-07T05:43:55.983Z,24.7
2017-07-07T05:44:58.703Z,24.7
2017-07-07T05:45:58.705Z,24.7
2017-07-07T05:47:00.904Z,24.7
2017-07-07T05:48:00.885Z,24.7
2017-07-07T05:48:55.851Z,24.6
2017-07-07T05:50:01.308Z,24.5
2017-07-07T05:51:01.016Z,24.4
2017-07-07T05:51:58.981Z,24.4
2017-07-07T05:52:56.647Z,24.5
2017-07-07T05:53:59.798Z,24.5
2017-07-07T05:54:59.090Z,24.4
2017-07-07T05:55:59.448Z,24.5
2017-07-07T05:57:01.139Z,24.6
2017-07-07T05:57:59.073Z,24.7
2017-07-07T05:58:56.272Z,24.8
2017-07-07T06:00:01.235Z,24.9
2017-07-07T06:00:56.510Z,25
2017-07-07T06:01:59.781Z,25.1
2017-07-07T06:02:59.308Z,25.2
2017-07-07T06:03:56.565Z,25.3
2017-07-07T06:04:56.509Z,25.3
2017-07-07T06:05:57.340Z,25.5
2017-07-07T06:06:56.686Z,25.8
2017-07-07T06:07:56.886Z,26.1
2017-07-07T06:09:01.791Z,26.3
2017-07-07T06:09:57.044Z,26.6
2017-07-07T06:11:01.912Z,26.9
2017-07-07T06:12:02.041Z,27.2
2017-07-07T06:12:57.155Z,27.4
2017-07-07T06:13:57.364Z,27.6
2017-07-07T06:14:57.260Z,27.8
2017-07-07T06:15:57.285Z,28
2017-07-07T06:17:02.274Z,28.1
2017-07-07T06:17:57.261Z,28.3
2017-07-07T06:19:02.301Z,28.5
2017-07-07T06:19:58.423Z,28.6
2017-07-07T06:20:58.249Z,28.7
2017-07-07T06:21:58.298Z,28.8
2017-07-07T06:23:03.234Z,28.9
2017-07-07T06:24:02.859Z,28.9
2017-07-07T06:24:57.812Z,29
2017-07-07T06:26:03.103Z,29.1
2017-07-07T06:27:02.921Z,29.2
2017-07-07T06:27:57.829Z,29.2
2017-07-07T06:28:58.064Z,29.2
2017-07-07T06:30:00.861Z,29.3
2017-07-07T06:30:58.074Z,29.4
2017-07-07T06:31:58.329Z,29.4
2017-07-07T06:32:58.313Z,29.5
2017-07-07T06:34:01.197Z,29.5
2017-07-07T06:34:59.147Z,29.5
2017-07-07T06:36:01.885Z,29.5
2017-07-07T06:36:58.384Z,29.5
2017-07-07T06:38:03.733Z,29.5
2017-07-07T06:38:58.603Z,29.6
2017-07-07T06:40:03.506Z,29.6
2017-07-07T06:41:02.140Z,29.7
2017-07-07T06:42:01.577Z,29.8
2017-07-07T06:43:03.625Z,29.8
2017-07-07T06:44:03.930Z,29.9
2017-07-07T06:44:58.732Z,29.9
2017-07-07T06:45:59.502Z,29.9
2017-07-07T06:47:05.688Z,30
2017-07-07T06:47:58.966Z,30.1
2017-07-07T06:49:01.862Z,30.2
2017-07-07T06:49:59.219Z,30.2
2017-07-07T06:51:05.315Z,30.3
2017-07-07T06:52:04.208Z,30.3
2017-07-07T06:52:59.305Z,30.4
2017-07-07T06:53:59.285Z,30.4
2017-07-07T06:55:04.333Z,30.4
2017-07-07T06:56:00.225Z,30.4
2017-07-07T06:57:03.009Z,30.5
2017-07-07T06:58:02.323Z,30.5
2017-07-07T06:59:04.571Z,30.6
2017-07-07T06:59:59.774Z,30.6
2017-07-07T07:00:59.568Z,30.6
2017-07-07T07:01:59.979Z,30.6
2017-07-07T07:03:02.487Z,30.6
2017-07-07T07:03:59.748Z,30.7
2017-07-07T07:04:59.685Z,30.7
2017-07-07T07:05:59.701Z,30.7
2017-07-07T07:06:59.882Z,30.6
2017-07-07T07:08:05.099Z,30.7
2017-07-07T07:09:00.053Z,30.7
2017-07-07T07:10:00.076Z,30.7
2017-07-07T07:11:04.009Z,30.7
2017-07-07T07:12:05.652Z,30.7
2017-07-07T07:13:05.165Z,30.8
2017-07-07T07:14:06.703Z,30.8
2017-07-07T07:15:05.787Z,30.8
2017-07-07T07:16:00.570Z,30.7
2017-07-07T07:17:05.416Z,30.8
2017-07-07T07:18:00.410Z,30.8
2017-07-07T07:19:01.220Z,30.9
2017-07-07T07:20:00.817Z,31
2017-07-07T07:21:00.487Z,31.1
2017-07-07T07:22:05.504Z,31.2
2017-07-07T07:23:02.113Z,31.3
2017-07-07T07:24:05.672Z,31.4
2017-07-07T07:25:05.626Z,31.4
2017-07-07T07:26:05.036Z,31.4
2017-07-07T07:27:03.691Z,31.4
2017-07-07T07:28:03.581Z,31.5
2017-07-07T07:29:01.599Z,31.5
2017-07-07T07:30:04.713Z,31.6
2017-07-07T07:31:01.036Z,31.7
2017-07-07T07:32:04.152Z,31.7
2017-07-07T07:33:04.702Z,31.8
2017-07-07T07:34:03.100Z,31.8
2017-07-07T07:35:01.968Z,31.8
2017-07-07T07:36:01.335Z,31.9
2017-07-07T07:37:03.944Z,31.9
2017-07-07T07:38:06.400Z,32
2017-07-07T07:39:01.368Z,32
2017-07-07T07:40:04.158Z,32
2017-07-07T07:41:01.383Z,32.1
2017-07-07T07:42:01.399Z,32.1
2017-07-07T07:43:01.469Z,32.2
2017-07-07T07:44:05.456Z,32.2
2017-07-07T07:45:02.884Z,32.3
2017-07-07T07:46:03.712Z,32.3
2017-07-07T07:47:03.488Z,32.3
2017-07-07T07:48:06.691Z,32.3
2017-07-07T07:49:03.076Z,32.4
2017-07-07T07:50:07.180Z,32.4
2017-07-07T07:51:07.538Z,32.4
2017-07-07T07:52:03.292Z,32.5
2017-07-07T07:53:01.916Z,32.4
2017-07-07T07:54:02.129Z,32.5
2017-07-07T07:55:07.573Z,32.6
2017-07-07T07:56:09.852Z,32.7
2017-07-07T07:57:07.171Z,32.7
2017-07-07T07:58:03.725Z,32.7
2017-07-07T07:59:02.929Z,32.8
2017-07-07T08:00:03.712Z,32.8
2017-07-07T08:01:08.533Z,32.8
2017-07-07T08:02:04.694Z,32.8
2017-07-07T08:03:08.980Z,32.8
2017-07-07T08:04:05.249Z,32.8
2017-07-07T08:05:10.459Z,32.9
2017-07-07T08:06:05.111Z,32.9
2017-07-07T08:07:07.346Z,33
2017-07-07T08:08:08.516Z,33
2017-07-07T08:09:07.756Z,33
2017-07-07T08:10:05.281Z,33
2017-07-07T08:11:04.425Z,33.1
2017-07-07T08:12:07.144Z,33.1
2017-07-07T08:13:06.609Z,33.2
2017-07-07T08:14:11.280Z,33.2
2017-07-07T08:15:11.284Z,33.3
2017-07-07T08:16:10.979Z,33.3
2017-07-07T08:17:06.702Z,33.4
2017-07-07T08:18:09.158Z,33.5
2017-07-07T08:19:06.426Z,33.5
2017-07-07T08:20:08.709Z,33.5
2017-07-07T08:21:10.173Z,33.5
2017-07-07T08:22:09.693Z,33.6
2017-07-07T08:23:06.634Z,33.6
2017-07-07T08:24:06.056Z,33.6
2017-07-07T08:25:07.238Z,33.7
2017-07-07T08:26:05.207Z,33.7
2017-07-07T08:27:09.971Z,33.7
2017-07-07T08:28:06.450Z,33.6
2017-07-07T08:29:06.031Z,33.7
2017-07-07T08:30:11.199Z,33.7
2017-07-07T08:31:05.461Z,33.7
2017-07-07T08:32:06.171Z,33.7
2017-07-07T08:33:05.238Z,33.8
2017-07-07T08:34:07.018Z,33.7
2017-07-07T08:35:10.903Z,33.6
2017-07-07T08:36:06.061Z,33.7
2017-07-07T08:37:06.166Z,33.6
2017-07-07T08:38:07.542Z,33.5
2017-07-07T08:39:05.129Z,33.5
2017-07-07T08:40:06.427Z,33.4
2017-07-07T08:41:05.202Z,33.3
2017-07-07T08:42:08.146Z,33.3
2017-07-07T08:43:08.815Z,33.3
2017-07-07T08:44:05.576Z,33.3
2017-07-07T08:45:05.643Z,33.3
2017-07-07T08:46:06.142Z,33.3
2017-07-07T08:47:10.805Z,33.4
2017-07-07T08:48:13.042Z,33.4
2017-07-07T08:49:06.269Z,33.4
2017-07-07T08:50:07.216Z,33.4
2017-07-07T08:51:09.292Z,33.4
2017-07-07T08:52:06.117Z,33.3
2017-07-07T08:53:10.696Z,33.4
2017-07-07T08:54:11.774Z,33.3
2017-07-07T08:55:12.100Z,33.3
2017-07-07T08:56:06.191Z,33.2
2017-07-07T08:57:12.962Z,33.1
2017-07-07T08:58:06.104Z,33.1
2017-07-07T08:59:11.270Z,33.1
2017-07-07T09:00:06.895Z,33
2017-07-07T09:01:09.524Z,33
2017-07-07T09:02:13.317Z,33
2017-07-07T09:03:16.731Z,33
2017-07-07T09:04:12.594Z,33
2017-07-07T09:05:08.482Z,33
2017-07-07T09:06:09.601Z,32.9
2017-07-07T09:07:13.163Z,32.8
2017-07-07T09:08:08.776Z,32.9
2017-07-07T09:09:08.574Z,33
2017-07-07T09:10:13.172Z,33.1
2017-07-07T09:11:11.784Z,33.2
2017-07-07T09:12:10.145Z,33.2
2017-07-07T09:13:06.515Z,33.2
2017-07-07T09:14:07.390Z,33.3
2017-07-07T09:15:13.827Z,33.4
2017-07-07T09:16:13.383Z,33.4
2017-07-07T09:17:13.108Z,33.3
2017-07-07T09:18:14.553Z,33.5
2017-07-07T09:19:10.476Z,33.5
2017-07-07T09:20:10.518Z,33.5
2017-07-07T09:21:10.211Z,33.5
2017-07-07T09:22:11.321Z,33.4
2017-07-07T09:23:13.478Z,33.4
2017-07-07T09:24:13.857Z,33.3
2017-07-07T09:25:08.920Z,33.4
2017-07-07T09:26:13.030Z,33.4
2017-07-07T09:27:13.090Z,33.3
2017-07-07T09:28:09.082Z,33.3
2017-07-07T09:29:06.998Z,33.2
2017-07-07T09:30:13.968Z,33.1
2017-07-07T09:31:11.414Z,33.1
2017-07-07T09:32:14.737Z,33
2017-07-07T09:33:10.638Z,32.9
2017-07-07T09:34:11.417Z,32.9
2017-07-07T09:35:13.422Z,32.8
2017-07-07T09:36:08.028Z,32.8
2017-07-07T09:37:12.330Z,32.8
2017-07-07T09:38:13.891Z,32.8
2017-07-07T09:39:14.412Z,33
2017-07-07T09:40:11.510Z,33
2017-07-07T09:41:11.778Z,33.1
2017-07-07T09:42:13.375Z,33.2
2017-07-07T09:43:14.213Z,33.3
2017-07-07T09:44:08.786Z,33.3
2017-07-07T09:45:09.784Z,33.4
2017-07-07T09:46:14.302Z,33.4
2017-07-07T09:47:12.344Z,33.4
2017-07-07T09:48:08.768Z,33.4
2017-07-07T09:49:15.810Z,33.5
2017-07-07T09:50:11.024Z,33.5
2017-07-07T09:51:10.768Z,33.4
2017-07-07T09:52:12.236Z,33.4
2017-07-07T09:53:08.347Z,33.3
2017-07-07T09:54:08.405Z,33.3
2017-07-07T09:55:13.448Z,33.3
2017-07-07T09:56:12.010Z,33.3
2017-07-07T09:57:13.757Z,33.3
2017-07-07T09:58:11.918Z,33.3
2017-07-07T09:59:11.433Z,33.4
2017-07-07T10:00:13.616Z,33.5
2017-07-07T10:01:08.629Z,33.5
2017-07-07T10:02:10.475Z,33.6
2017-07-07T10:03:09.743Z,33.6
2017-07-07T10:04:10.262Z,33.6
2017-07-07T10:05:15.458Z,33.5
2017-07-07T10:06:16.257Z,33.6
2017-07-07T10:07:10.775Z,33.6
2017-07-07T10:08:13.896Z,33.6
2017-07-07T10:09:10.741Z,33.6
2017-07-07T10:10:17.982Z,33.6
2017-07-07T10:11:10.792Z,33.7
2017-07-07T10:12:10.472Z,33.7
2017-07-07T10:13:18.483Z,33.7
2017-07-07T10:14:19.736Z,33.7
2017-07-07T10:15:17.873Z,33.7
2017-07-07T10:16:14.237Z,33.7
2017-07-07T10:17:15.191Z,33.7
2017-07-07T10:18:18.210Z,33.8
2017-07-07T10:19:17.260Z,33.7
2017-07-07T10:20:18.495Z,33.8
2017-07-07T10:21:13.374Z,33.8
2017-07-07T10:22:15.704Z,33.8
2017-07-07T10:23:14.150Z,33.9
2017-07-07T10:24:18.177Z,33.9
2017-07-07T10:25:13.391Z,33.9
2017-07-07T10:26:14.515Z,33.9
2017-07-07T10:27:12.640Z,33.9
2017-07-07T10:28:16.950Z,33.9
2017-07-07T10:29:12.742Z,33.9
2017-07-07T10:30:14.393Z,33.9
2017-07-07T10:31:14.438Z,34
2017-07-07T10:32:18.920Z,34
2017-07-07T10:33:14.345Z,34
2017-07-07T10:34:17.193Z,34
2017-07-07T10:35:17.046Z,34
2017-07-07T10:36:11.947Z,34
2017-07-07T10:37:12.462Z,34
2017-07-07T10:38:16.259Z,34
2017-07-07T10:39:15.178Z,34
2017-07-07T10:40:12.027Z,34.1
2017-07-07T10:41:12.838Z,34.1
2017-07-07T10:42:15.305Z,34
2017-07-07T10:43:12.424Z,34.1
2017-07-07T10:44:14.988Z,34.1
2017-07-07T10:45:19.379Z,34.1
2017-07-07T10:46:12.103Z,34.1
2017-07-07T10:47:12.676Z,34.1
2017-07-07T10:48:16.939Z,34.1
2017-07-07T10:49:18.326Z,34
2017-07-07T10:50:16.760Z,33.9
2017-07-07T10:51:19.277Z,33.8
2017-07-07T10:52:17.761Z,33.7
2017-07-07T10:53:20.399Z,33.7
2017-07-07T10:54:16.629Z,33.6
2017-07-07T10:55:15.363Z,33.6
2017-07-07T10:56:17.057Z,33.5
2017-07-07T10:57:21.817Z,33.4
2017-07-07T10:58:17.182Z,33.4
2017-07-07T10:59:12.969Z,33.4
2017-07-07T11:00:16.149Z,33.4
2017-07-07T11:01:21.579Z,33.3
2017-07-07T11:02:13.909Z,33.4
2017-07-07T11:03:15.090Z,33.4
2017-07-07T11:04:13.898Z,33.4
2017-07-07T11:05:20.275Z,33.3
2017-07-07T11:06:17.743Z,33.4
2017-07-07T11:07:17.968Z,33.4
2017-07-07T11:08:13.861Z,33.6
2017-07-07T11:09:17.553Z,33.6
2017-07-07T11:10:15.792Z,33.6
2017-07-07T11:11:17.265Z,33.5
2017-07-07T11:12:14.503Z,33.6
2017-07-07T11:13:15.410Z,33.5
2017-07-07T11:14:14.769Z,33.6
2017-07-07T11:15:15.350Z,33.6
2017-07-07T11:16:14.182Z,33.6
2017-07-07T11:17:12.494Z,33.6
2017-07-07T11:18:12.773Z,33.6
2017-07-07T11:19:12.658Z,33.6
2017-07-07T11:20:20.298Z,33.6
2017-07-07T11:21:16.484Z,33.5
2017-07-07T11:22:13.983Z,33.5
2017-07-07T11:23:18.256Z,33.5
2017-07-07T11:24:20.423Z,33.4
2017-07-07T11:25:19.353Z,33.4
2017-07-07T11:26:13.084Z,33.6
2017-07-07T11:27:18.499Z,33.6
2017-07-07T11:28:13.037Z,33.7
2017-07-07T11:29:14.860Z,33.8
2017-07-07T11:30:13.246Z,33.8
2017-07-07T11:31:14.313Z,33.7
2017-07-07T11:32:17.879Z,33.7
2017-07-07T11:33:17.411Z,33.6
2017-07-07T11:34:14.483Z,33.6
2017-07-07T11:35:19.644Z,33.5
2017-07-07T11:36:18.967Z,33.5
2017-07-07T11:37:25.072Z,33.4
2017-07-07T11:38:20.550Z,33.4
2017-07-07T11:39:14.807Z,33.3
2017-07-07T11:40:14.703Z,33.4
2017-07-07T11:41:16.466Z,33.3
2017-07-07T11:42:14.290Z,33.4
2017-07-07T11:43:19.268Z,33.4
2017-07-07T11:44:21.843Z,33.4
2017-07-07T11:45:14.713Z,33.4
2017-07-07T11:46:21.467Z,33.3
2017-07-07T11:47:16.463Z,33.3
2017-07-07T11:48:15.980Z,33.3
2017-07-07T11:49:19.551Z,33.3
2017-07-07T11:50:17.587Z,33.4
2017-07-07T11:51:14.807Z,33.4
2017-07-07T11:52:16.029Z,33.3
2017-07-07T11:53:21.637Z,33.4
2017-07-07T11:54:20.058Z,33.5
2017-07-07T11:55:26.618Z,33.5
2017-07-07T11:56:18.472Z,33.6
2017-07-07T11:57:15.186Z,33.7
2017-07-07T11:58:15.642Z,33.6
2017-07-07T11:59:17.313Z,33.7
2017-07-07T12:00:18.590Z,33.7
2017-07-07T12:01:16.371Z,33.7
2017-07-07T12:02:16.294Z,33.7
2017-07-07T12:03:18.336Z,33.8
2017-07-07T12:04:17.888Z,33.8
2017-07-07T12:05:14.792Z,33.8
2017-07-07T12:06:14.831Z,33.7
2017-07-07T12:07:15.410Z,33.8
2017-07-07T12:08:20.605Z,33.8
2017-07-07T12:09:22.456Z,33.7
2017-07-07T12:10:16.353Z,33.8
2017-07-07T12:11:21.885Z,33.8
2017-07-07T12:12:21.924Z,33.8
2017-07-07T12:13:17.755Z,33.9
2017-07-07T12:14:19.218Z,34
2017-07-07T12:15:21.313Z,34
2017-07-07T12:16:19.334Z,34
2017-07-07T12:17:19.566Z,34.1
2017-07-07T12:18:19.378Z,34.2
2017-07-07T12:19:16.119Z,34.2
2017-07-07T12:20:19.750Z,34.2
2017-07-07T12:21:21.116Z,34.2
2017-07-07T12:22:19.449Z,34.2
2017-07-07T12:23:16.817Z,34.2
2017-07-07T12:24:19.816Z,34.2
2017-07-07T12:25:16.580Z,34.2
2017-07-07T12:26:18.029Z,34.2
2017-07-07T12:27:17.160Z,34.3
2017-07-07T12:28:19.780Z,34.3
2017-07-07T12:29:22.201Z,34.3
2017-07-07T12:30:21.787Z,34.3
2017-07-07T12:31:19.782Z,34.3
2017-07-07T12:32:16.500Z,34.3
2017-07-07T12:33:19.725Z,34.3
2017-07-07T12:34:16.115Z,34.3
2017-07-07T12:35:22.252Z,34.3
2017-07-07T12:36:16.281Z,34.3
2017-07-07T12:37:19.294Z,34.3
2017-07-07T12:38:19.657Z,34.3
2017-07-07T12:39:16.547Z,34.3
2017-07-07T12:40:19.666Z,34.3
2017-07-07T12:41:18.592Z,34.3
2017-07-07T12:42:16.710Z,34.3
2017-07-07T12:43:21.803Z,34.3
2017-07-07T12:44:19.833Z,34.3
2017-07-07T12:45:20.390Z,34.3
2017-07-07T12:46:20.387Z,34.3
2017-07-07T12:47:17.663Z,34.3
2017-07-07T12:48:19.367Z,34.3
2017-07-07T12:49:22.876Z,34.3
2017-07-07T12:50:23.805Z,34.4
2017-07-07T12:51:19.660Z,34.4
2017-07-07T12:52:24.383Z,34.4
2017-07-07T12:53:20.016Z,34.4
2017-07-07T12:54:18.624Z,34.4
2017-07-07T12:55:20.317Z,34.3
2017-07-07T12:56:19.003Z,34.3
2017-07-07T12:57:18.569Z,34.3
2017-07-07T12:58:25.458Z,34.3
2017-07-07T12:59:24.719Z,34.4
2017-07-07T13:00:22.476Z,34.4
2017-07-07T13:01:20.410Z,34.3
2017-07-07T13:02:18.549Z,34.3
2017-07-07T13:03:23.923Z,34.3
2017-07-07T13:04:18.519Z,34.3
2017-07-07T13:05:21.189Z,34.3
2017-07-07T13:06:21.486Z,34.3
2017-07-07T13:07:19.207Z,34.3
2017-07-07T13:08:21.288Z,34.3
2017-07-07T13:09:18.672Z,34.3
2017-07-07T13:10:22.319Z,34.3
2017-07-07T13:11:23.167Z,34.3
2017-07-07T13:12:20.332Z,34.3
2017-07-07T13:13:19.569Z,34.3
2017-07-07T13:14:20.263Z,34.2
2017-07-07T13:15:19.580Z,34.3
2017-07-07T13:16:20.335Z,34.3
2017-07-07T13:17:19.298Z,34.3
2017-07-07T13:18:20.277Z,34.3
2017-07-07T13:19:23.365Z,34.3
2017-07-07T13:20:21.358Z,34.3
2017-07-07T13:21:20.030Z,34.3
2017-07-07T13:22:20.029Z,34.3
2017-07-07T13:23:24.232Z,34.2
2017-07-07T13:24:23.128Z,34.2
2017-07-07T13:25:28.147Z,34.2
2017-07-07T13:26:21.714Z,34.2
2017-07-07T13:27:19.616Z,34.2